Time;durP1;ratioP1;P1;durP2;ratioP2;P2;SDS_P1;SDS_P2;PMS_P1;PMS_P2;Temp;Humidity;BMP_temperature;BMP_pressure;BME280_temperature;BME280_humidity;BME280_pressure;Samples;Min_cycle;Max_cycle;Signal;HPM_P1;HPM_P2
2021/04/14 00:02:19;;;;;;;1.77;0.20;;;23.60;80.00;;;;;;4980030;28;20525;-69
2021/04/14 00:04:46;;;;;;;4.22;0.38;;;23.30;76.60;;;;;;4984830;28;20138;-70
2021/04/14 00:07:15;;;;;;;3.78;1.05;;;23.60;76.20;;;;;;4984445;28;20027;-69
2021/04/14 00:09:42;;;;;;;2.30;0.77;;;23.50;73.70;;;;;;4985430;28;20419;-69
2021/04/14 00:12:12;;;;;;;2.17;0.30;;;23.70;72.70;;;;;;4985921;28;20459;-69
2021/04/14 00:14:39;;;;;;;1.95;0.30;;;23.80;73.20;;;;;;4981259;28;20061;-70
2021/04/14 00:17:07;;;;;;;1.73;0.60;;;23.40;73.00;;;;;;4984309;28;20038;-70
2021/04/14 00:19:34;;;;;;;2.65;0.40;;;23.50;74.00;;;;;;4985620;28;20447;-69
2021/04/14 00:22:03;;;;;;;2.00;0.65;;;24.10;76.40;;;;;;4989647;28;20029;-70
2021/04/14 00:24:32;;;;;;;2.58;0.40;;;24.00;72.90;;;;;;4984298;28;20039;-69
2021/04/14 00:26:59;;;;;;;1.30;0.30;;;24.10;70.90;;;;;;4985767;28;20041;-69
2021/04/14 00:29:26;;;;;;;3.20;0.30;;;24.20;69.40;;;;;;4988661;28;20058;-69
2021/04/14 00:31:54;;;;;;;0.60;0.20;;;24.20;68.70;;;;;;4981240;28;20029;-69
2021/04/14 00:34:22;;;;;;;1.85;0.50;;;24.40;69.40;;;;;;4993124;28;20383;-69
2021/04/14 00:36:50;;;;;;;1.35;0.38;;;24.70;69.20;;;;;;4982697;28;20042;-70
2021/04/14 00:39:21;;;;;;;0.47;0.10;;;24.50;68.10;;;;;;4985653;28;20383;-70
2021/04/14 00:41:50;;;;;;;1.50;0.30;;;24.30;67.80;;;;;;4982060;28;20573;-70
2021/04/14 00:44:19;;;;;;;3.65;0.30;;;24.40;68.70;;;;;;4976172;28;20033;-71
2021/04/14 00:46:47;;;;;;;0.63;0.10;;;24.40;68.10;;;;;;4978859;28;20030;-70
2021/04/14 00:49:14;;;;;;;0.73;0.20;;;24.40;66.80;;;;;;4981500;28;20447;-69
2021/04/14 00:51:42;;;;;;;2.28;0.43;;;24.50;67.40;;;;;;4983931;28;20037;-70
2021/04/14 00:54:12;;;;;;;1.42;0.28;;;24.80;68.30;;;;;;4989265;28;20060;-70
2021/04/14 00:56:39;;;;;;;2.70;0.20;;;24.90;67.70;;;;;;4985630;28;20023;-70
2021/04/14 00:59:07;;;;;;;4.90;0.90;;;25.20;67.20;;;;;;4985489;28;20034;-70
2021/04/14 01:01:34;;;;;;;2.28;0.40;;;25.00;64.80;;;;;;4989293;28;20027;-70
2021/04/14 01:04:01;;;;;;;1.77;0.30;;;24.90;64.40;;;;;;4985505;28;20501;-70
2021/04/14 01:06:29;;;;;;;1.15;0.30;;;24.90;64.90;;;;;;4981991;28;20018;-70
2021/04/14 01:08:58;;;;;;;1.85;0.30;;;25.10;63.40;;;;;;4983129;28;20022;-69
2021/04/14 01:11:30;;;;;;;1.92;0.22;;;25.20;65.40;;;;;;4984963;28;20305;-70
2021/04/14 01:13:58;;;;;;;4.45;0.90;;;25.30;63.20;;;;;;4982413;28;20031;-70
2021/04/14 01:16:25;;;;;;;5.47;0.30;;;25.30;63.20;;;;;;4985293;28;20022;-69
2021/04/14 01:18:52;;;;;;;3.60;0.40;;;25.20;63.80;;;;;;4985633;28;20035;-69
2021/04/14 01:21:24;;;;;;;2.28;0.40;;;25.80;65.50;;;;;;4988269;28;20042;-71
2021/04/14 01:23:52;;;;;;;2.13;0.38;;;25.40;64.10;;;;;;4998691;28;20471;-70
2021/04/14 01:26:19;;;;;;;2.92;0.65;;;25.80;63.40;;;;;;4986737;28;20482;-70
2021/04/14 01:28:47;;;;;;;2.75;0.40;;;25.70;61.60;;;;;;4986615;28;20018;-70
2021/04/14 01:31:17;;;;;;;2.58;0.20;;;25.90;64.70;;;;;;4984261;28;20027;-70
2021/04/14 01:33:44;;;;;;;1.38;0.30;;;26.20;62.30;;;;;;4981657;28;20026;-70
2021/04/14 01:36:12;;;;;;;1.02;0.20;;;25.90;62.10;;;;;;4986361;28;20026;-69
2021/04/14 01:38:40;;;;;;;1.63;0.50;;;26.30;61.10;;;;;;4987504;28;20039;-71
2021/04/14 01:41:08;;;;;;;1.65;0.20;;;26.20;61.80;;;;;;4985413;28;20023;-70
2021/04/14 01:43:36;;;;;;;1.30;0.35;;;26.30;61.90;;;;;;4984876;28;20052;-70
2021/04/14 01:46:04;;;;;;;5.40;0.85;;;26.30;63.10;;;;;;4980672;28;20035;-70
2021/04/14 01:48:31;;;;;;;2.38;0.30;;;26.10;60.50;;;;;;4985025;28;20034;-70
2021/04/14 01:50:59;;;;;;;1.60;0.20;;;26.10;61.60;;;;;;4982540;28;20111;-70
2021/04/14 01:53:27;;;;;;;4.85;0.50;;;25.90;60.60;;;;;;4987399;28;20062;-70
2021/04/14 01:55:55;;;;;;;4.40;0.75;;;26.10;62.00;;;;;;4983763;28;20129;-70
2021/04/14 01:58:23;;;;;;;2.08;0.50;;;26.20;61.40;;;;;;4980760;28;20501;-70
2021/04/14 02:00:56;;;;;;;1.40;0.52;;;26.30;62.30;;;;;;4982182;28;20368;-70
2021/04/14 02:03:26;;;;;;;1.37;0.30;;;26.20;62.00;;;;;;4988939;28;20019;-70
2021/04/14 02:05:53;;;;;;;3.03;0.40;;;25.80;62.00;;;;;;4982974;28;20026;-70
2021/04/14 02:08:20;;;;;;;5.88;0.60;;;25.10;62.50;;;;;;4984632;28;20026;-70
2021/04/14 02:10:50;;;;;;;4.53;0.55;;;24.90;62.10;;;;;;4985398;28;20026;-70
2021/04/14 02:13:22;;;;;;;4.82;0.88;;;24.70;62.70;;;;;;4983578;28;20446;-70
2021/04/14 02:15:51;;;;;;;1.88;0.40;;;24.50;61.80;;;;;;4980142;28;20023;-70
2021/04/14 02:18:19;;;;;;;2.78;0.35;;;24.40;60.60;;;;;;4977402;28;20116;-70
2021/04/14 02:20:48;;;;;;;1.00;0.40;;;24.70;61.50;;;;;;4986123;28;20057;-69
2021/04/14 02:23:27;;;;;;;1.75;0.60;;;24.70;61.90;;;;;;4984745;28;20641;-69
2021/04/14 02:25:57;;;;;;;1.08;0.20;;;24.90;61.60;;;;;;4984122;28;20031;-70
2021/04/14 02:28:25;;;;;;;0.90;0.50;;;25.20;61.50;;;;;;4987087;28;20540;-70
2021/04/14 02:30:53;;;;;;;3.08;0.50;;;25.10;61.60;;;;;;4987071;28;20053;-70
2021/04/14 02:33:21;;;;;;;0.85;0.63;;;24.70;61.10;;;;;;4986787;28;20037;-69
2021/04/14 02:35:49;;;;;;;1.80;0.68;;;24.40;60.10;;;;;;4990287;28;20029;-69
2021/04/14 02:38:18;;;;;;;3.22;0.50;;;24.30;60.60;;;;;;4987925;28;20027;-68
2021/04/14 02:40:45;;;;;;;4.57;0.52;;;24.20;60.60;;;;;;4986143;28;20046;-69
2021/04/14 02:43:12;;;;;;;2.08;0.60;;;24.10;61.50;;;;;;4988150;28;20113;-69
2021/04/14 02:45:41;;;;;;;2.05;0.47;;;24.20;61.70;;;;;;4989903;28;20053;-68
2021/04/14 02:48:10;;;;;;;2.70;0.47;;;24.30;62.10;;;;;;4996257;28;20022;-68
2021/04/14 02:50:38;;;;;;;2.45;0.50;;;24.40;61.60;;;;;;4989575;28;20476;-68
2021/04/14 02:53:07;;;;;;;1.95;0.35;;;24.40;63.50;;;;;;5000207;28;20026;-68
2021/04/14 02:55:35;;;;;;;2.38;0.20;;;24.40;62.90;;;;;;4991944;28;20027;-69
2021/04/14 02:58:02;;;;;;;2.03;0.30;;;24.30;65.40;;;;;;4991442;28;20514;-69
2021/04/14 03:00:30;;;;;;;1.75;0.20;;;24.30;64.60;;;;;;4988877;28;20033;-69
2021/04/14 03:02:58;;;;;;;2.60;0.50;;;24.30;66.40;;;;;;4992666;28;20038;-68
2021/04/14 03:05:31;;;;;;;3.75;0.45;;;24.20;64.60;;;;;;4994028;28;20022;-69
2021/04/14 03:07:59;;;;;;;1.40;0.70;;;24.20;65.40;;;;;;4987587;28;20022;-69
2021/04/14 03:10:27;;;;;;;2.03;0.68;;;24.10;65.70;;;;;;4989350;28;20029;-68
2021/04/14 03:12:55;;;;;;;3.47;0.90;;;24.00;64.20;;;;;;4987024;28;20109;-68
2021/04/14 03:15:29;;;;;;;1.60;0.52;;;23.90;65.80;;;;;;4986762;28;20050;-68
2021/04/14 03:17:57;;;;;;;1.40;0.40;;;23.90;65.40;;;;;;4992889;28;20091;-68
2021/04/14 03:20:25;;;;;;;3.22;0.22;;;23.90;65.00;;;;;;4992873;28;20029;-68
2021/04/14 03:22:55;;;;;;;2.65;0.35;;;23.80;64.20;;;;;;4990104;28;20548;-68
2021/04/14 03:25:24;;;;;;;2.00;0.50;;;23.90;64.20;;;;;;4989612;28;20054;-68
2021/04/14 03:27:51;;;;;;;2.72;0.40;;;23.90;66.10;;;;;;4985273;28;20073;-68
2021/04/14 03:30:20;;;;;;;4.50;1.17;;;23.90;66.30;;;;;;4984895;28;20383;-69
2021/04/14 03:32:47;;;;;;;2.25;0.40;;;24.60;66.40;;;;;;4990107;28;20026;-69
2021/04/14 03:35:16;;;;;;;1.23;0.30;;;25.30;65.10;;;;;;4989266;28;20026;-68
2021/04/14 03:37:43;;;;;;;4.53;0.35;;;25.60;65.90;;;;;;4992382;28;20023;-69
2021/04/14 03:40:12;;;;;;;3.30;0.93;;;25.70;63.80;;;;;;4989873;28;20026;-69
2021/04/14 03:42:39;;;;;;;1.63;0.80;;;25.80;62.60;;;;;;4990831;28;20447;-69
2021/04/14 03:45:13;;;;;;;2.20;0.40;;;26.40;65.40;;;;;;4985818;28;20030;-69
2021/04/14 03:47:40;;;;;;;;;;;26.40;65.90;;;;;;4984144;28;20030;-68
2021/04/14 03:50:10;;;;;;;1.23;0.40;;;26.50;64.70;;;;;;4988506;28;20387;-69
2021/04/14 03:52:38;;;;;;;3.30;0.50;;;26.60;65.20;;;;;;4990386;28;20039;-68
2021/04/14 03:55:07;;;;;;;3.45;0.68;;;26.60;64.20;;;;;;4987653;28;20034;-70
2021/04/14 03:57:35;;;;;;;2.67;0.40;;;26.60;63.00;;;;;;4991686;28;20104;-69
2021/04/14 04:00:08;;;;;;;4.32;0.60;;;26.80;63.30;;;;;;4985101;28;20513;-69
2021/04/14 04:02:35;;;;;;;3.53;0.63;;;27.00;64.20;;;;;;4984156;28;20483;-69
2021/04/14 04:05:03;;;;;;;1.77;0.30;;;27.10;63.90;;;;;;4987212;28;20045;-68
2021/04/14 04:07:30;;;;;;;3.17;0.30;;;27.00;64.10;;;;;;4987396;28;20045;-69
2021/04/14 04:09:57;;;;;;;2.13;0.47;;;27.00;64.20;;;;;;4991126;28;20025;-69
2021/04/14 04:12:25;;;;;;;1.67;0.22;;;27.10;64.20;;;;;;4992523;28;20036;-68
2021/04/14 04:14:52;;;;;;;2.85;0.30;;;27.10;65.20;;;;;;4986647;28;20782;-69
2021/04/14 04:17:21;;;;;;;5.72;0.60;;;26.80;64.30;;;;;;4988569;28;20069;-69
2021/04/14 04:19:49;;;;;;;2.70;0.80;;;26.60;65.90;;;;;;4984470;28;21804;-69
2021/04/14 04:22:20;;;;;;;1.75;0.65;;;26.60;64.20;;;;;;4980288;28;20037;-68
2021/04/14 04:24:51;;;;;;;2.70;0.40;;;26.80;64.70;;;;;;4992774;28;20113;-68
2021/04/14 04:27:19;;;;;;;1.92;0.25;;;26.70;62.70;;;;;;4984151;28;20327;-68
2021/04/14 04:29:46;;;;;;;1.38;0.30;;;26.60;61.70;;;;;;4983961;28;20413;-69
2021/04/14 04:32:14;;;;;;;7.03;0.70;;;26.40;62.60;;;;;;4984576;28;20031;-69
2021/04/14 04:34:41;;;;;;;1.35;0.40;;;26.00;62.60;;;;;;4984100;28;20034;-69
2021/04/14 04:37:08;;;;;;;2.25;0.43;;;25.70;62.70;;;;;;4982985;28;20065;-70
2021/04/14 04:39:36;;;;;;;4.07;0.55;;;25.60;63.60;;;;;;4984105;28;20092;-69
2021/04/14 04:42:06;;;;;;;4.43;0.30;;;25.60;64.10;;;;;;4980597;28;20355;-69
2021/04/14 04:44:33;;;;;;;0.98;0.20;;;25.50;63.70;;;;;;4985035;28;20030;-69
2021/04/14 04:47:00;;;;;;;0.73;0.20;;;25.50;64.30;;;;;;4983582;28;20026;-69
2021/04/14 04:49:27;;;;;;;3.63;0.63;;;25.60;61.70;;;;;;4981202;28;20530;-70
2021/04/14 04:51:55;;;;;;;4.25;0.28;;;25.60;61.30;;;;;;4986443;28;20023;-68
2021/04/14 04:54:22;;;;;;;1.88;0.30;;;25.70;61.20;;;;;;4983646;28;20045;-69
2021/04/14 04:56:49;;;;;;;3.35;0.40;;;25.80;61.10;;;;;;4976474;28;20022;-69
2021/04/14 04:59:17;;;;;;;2.55;0.43;;;26.00;59.80;;;;;;4985363;28;20034;-69
2021/04/14 05:01:44;;;;;;;0.73;0.22;;;26.10;60.70;;;;;;4981629;28;20027;-69
2021/04/14 05:04:13;;;;;;;2.90;0.20;;;26.30;59.90;;;;;;4985806;28;20533;-69
2021/04/14 05:06:40;;;;;;;2.60;0.55;;;26.30;60.00;;;;;;4988853;28;20483;-69
2021/04/14 05:09:08;;;;;;;1.23;0.25;;;26.10;61.40;;;;;;4983818;28;20073;-69
2021/04/14 05:11:35;;;;;;;1.90;0.30;;;26.00;60.60;;;;;;4979998;28;20038;-69
2021/04/14 05:14:02;;;;;;;5.15;0.88;;;26.00;61.10;;;;;;4980803;28;20022;-69
2021/04/14 05:16:30;;;;;;;2.15;0.50;;;26.10;62.60;;;;;;4982812;28;20038;-69
2021/04/14 05:18:57;;;;;;;1.98;0.50;;;26.10;60.80;;;;;;4980132;28;20042;-69
2021/04/14 05:21:24;;;;;;;1.58;0.30;;;26.10;60.60;;;;;;4982212;28;20109;-68
2021/04/14 05:23:53;;;;;;;2.55;0.40;;;26.00;62.00;;;;;;4986640;28;20085;-68
2021/04/14 05:26:21;;;;;;;15.63;1.25;;;25.80;63.80;;;;;;4990063;28;20027;-68
2021/04/14 05:28:48;;;;;;;3.83;0.63;;;25.80;63.20;;;;;;4983190;28;20475;-69
2021/04/14 05:31:16;;;;;;;14.52;0.82;;;25.80;60.90;;;;;;4986546;28;20023;-69
2021/04/14 05:33:43;;;;;;;2.05;0.35;;;25.80;59.00;;;;;;4981879;28;20033;-69
2021/04/14 05:36:10;;;;;;;2.35;0.60;;;25.70;57.70;;;;;;4984879;28;20427;-68
2021/04/14 05:38:38;;;;;;;2.22;0.50;;;25.70;58.50;;;;;;4983552;28;20053;-69
2021/04/14 05:41:05;;;;;;;2.28;0.55;;;25.80;58.30;;;;;;4983755;28;20430;-68
2021/04/14 05:43:38;;;;;;;1.98;0.10;;;26.00;59.50;;;;;;4984554;28;20475;-69
2021/04/14 05:46:08;;;;;;;2.92;0.47;;;25.90;59.00;;;;;;4987058;28;20491;-68
2021/04/14 05:48:37;;;;;;;1.00;0.20;;;25.80;58.60;;;;;;4987181;28;20065;-69
2021/04/14 05:51:06;;;;;;;3.33;0.60;;;25.90;57.60;;;;;;4982120;28;20042;-68
2021/04/14 05:53:35;;;;;;;1.42;0.32;;;26.00;56.50;;;;;;4988023;28;20425;-68
2021/04/14 05:56:03;;;;;;;4.57;0.57;;;26.10;56.30;;;;;;4984723;28;20034;-68
2021/04/14 05:58:31;;;;;;;4.07;0.60;;;26.20;56.30;;;;;;4989935;28;20038;-68
2021/04/14 06:00:58;;;;;;;4.88;1.00;;;26.20;56.30;;;;;;4989712;28;20056;-68
2021/04/14 06:03:26;;;;;;;14.02;2.50;;;26.30;56.60;;;;;;4987188;28;20034;-68
2021/04/14 06:05:54;;;;;;;1.67;0.40;;;26.10;57.10;;;;;;4985510;28;20108;-68
2021/04/14 06:08:22;;;;;;;7.60;1.27;;;26.10;57.00;;;;;;4986790;28;20073;-68
2021/04/14 06:10:49;;;;;;;8.05;0.95;;;26.00;57.60;;;;;;4984888;28;20391;-70
2021/04/14 06:13:17;;;;;;;2.38;0.30;;;26.10;57.10;;;;;;4985575;28;20066;-68
2021/04/14 06:15:45;;;;;;;1.05;0.38;;;26.10;57.10;;;;;;4987339;28;20033;-68
2021/04/14 06:18:13;;;;;;;1.42;0.80;;;26.20;56.90;;;;;;4988143;28;20050;-68
2021/04/14 06:20:41;;;;;;;2.47;0.40;;;26.10;58.80;;;;;;4985144;28;20046;-68
2021/04/14 06:23:12;;;;;;;5.80;0.40;;;26.00;58.00;;;;;;4991819;28;20077;-68
2021/04/14 06:26:15;;;;;;;2.33;0.50;;;25.90;57.50;;;;;;4987914;28;20027;-69
2021/04/14 06:28:28;;;;;;;4.75;0.60;;;25.80;58.50;;;;;;4985184;28;20132;-68
2021/04/14 06:30:56;;;;;;;1.73;0.40;;;25.60;58.60;;;;;;4983764;28;20048;-68
2021/04/14 06:33:25;;;;;;;1.67;0.30;;;25.60;58.80;;;;;;4986619;28;20022;-68
2021/04/14 06:35:52;;;;;;;2.08;0.45;;;25.60;58.30;;;;;;5006880;28;20400;-68
2021/04/14 06:38:24;;;;;;;3.53;0.22;;;25.50;58.90;;;;;;4994830;28;20029;-68
2021/04/14 06:44:20;;;;;;;2.53;0.60;;;25.40;57.90;;;;;;4988809;28;20046;-70
2021/04/14 06:46:52;;;;;;;4.07;0.77;;;25.60;58.10;;;;;;4989725;28;20025;-70
2021/04/14 06:49:36;;;;;;;1.77;0.22;;;25.60;58.30;;;;;;4989099;28;20043;-70
2021/04/14 06:52:21;;;;;;;;;;;25.60;59.20;;;;;;4983353;28;20033;-70
2021/04/14 06:54:48;;;;;;;;;;;25.40;59.90;;;;;;4988358;28;19917;-70
2021/04/14 06:57:27;;;;;;;3.45;0.32;;;25.40;60.80;;;;;;4987659;28;20375;-70
2021/04/14 07:00:17;;;;;;;2.28;0.80;;;25.40;59.10;;;;;;4982248;28;20509;-69
2021/04/14 07:03:05;;;;;;;3.08;0.60;;;25.40;59.30;;;;;;4985967;28;20463;-69
2021/04/14 07:05:36;;;;;;;2.95;0.43;;;25.40;59.80;;;;;;5003697;28;20030;-69
2021/04/14 07:08:10;;;;;;;3.75;0.43;;;25.40;59.10;;;;;;4982354;28;20480;-68
2021/04/14 07:10:39;;;;;;;5.57;0.93;;;25.60;58.40;;;;;;4988110;28;20026;-68
2021/04/14 07:13:08;;;;;;;2.38;0.63;;;25.60;57.60;;;;;;4985948;28;20021;-68
2021/04/14 07:15:36;;;;;;;2.15;0.30;;;25.60;57.90;;;;;;4986344;28;20516;-69
2021/04/14 07:18:07;;;;;;;2.38;0.45;;;25.50;58.50;;;;;;4987194;28;20053;-68
2021/04/14 07:20:48;;;;;;;4.15;0.30;;;25.40;58.30;;;;;;4986302;28;20064;-68
2021/04/14 07:23:59;;;;;;;4.38;0.50;;;25.40;58.30;;;;;;4980377;28;20035;-68
2021/04/14 07:26:32;;;;;;;2.42;0.30;;;25.30;58.30;;;;;;4983296;28;20487;-68
2021/04/14 07:29:30;;;;;;;3.20;0.30;;;25.20;59.00;;;;;;4987896;28;20026;-69
2021/04/14 07:32:45;;;;;;;2.35;0.40;;;25.00;59.00;;;;;;4999042;28;20153;-69
2021/04/14 07:35:15;;;;;;;0.98;0.30;;;24.90;60.50;;;;;;4987977;28;20482;-68
2021/04/14 07:38:19;;;;;;;3.42;0.40;;;24.50;60.70;;;;;;4990815;28;20066;-70
2021/04/14 07:41:12;;;;;;;5.43;0.75;;;24.60;59.50;;;;;;4984935;28;20048;-70
2021/04/14 07:44:08;;;;;;;4.75;0.65;;;24.60;59.60;;;;;;4990756;28;20546;-70
2021/04/14 07:46:40;;;;;;;7.05;0.50;;;24.50;60.30;;;;;;4988326;28;20027;-70
2021/04/14 07:49:09;;;;;;;3.00;0.40;;;24.50;60.10;;;;;;4987520;28;20070;-68
2021/04/14 07:51:36;;;;;;;2.40;0.50;;;24.60;60.30;;;;;;4988636;28;20391;-68
2021/04/14 07:54:22;;;;;;;2.42;0.47;;;24.60;60.00;;;;;;4984855;28;20545;-68
2021/04/14 07:56:53;;;;;;;5.80;0.82;;;24.40;61.00;;;;;;4986585;28;20032;-69
2021/04/14 07:59:34;;;;;;;2.67;0.50;;;24.30;60.50;;;;;;4998949;28;20046;-68
2021/04/14 08:02:05;;;;;;;3.72;0.40;;;24.30;61.90;;;;;;4977912;28;20026;-68
2021/04/14 08:04:36;;;;;;;2.13;0.50;;;24.10;63.40;;;;;;4985631;28;20479;-68
2021/04/14 08:07:20;;;;;;;1.33;0.40;;;24.00;63.30;;;;;;4983124;28;20022;-68
2021/04/14 08:10:00;;;;;;;3.95;0.45;;;24.00;63.10;;;;;;4985074;28;20031;-68
2021/04/14 08:12:53;;;;;;;3.05;0.57;;;24.10;62.20;;;;;;4989002;28;20505;-69
2021/04/14 08:15:39;;;;;;;2.97;0.40;;;24.10;62.70;;;;;;4990863;28;20145;-69
2021/04/14 08:18:28;;;;;;;2.88;0.55;;;24.20;61.20;;;;;;4986031;28;20038;-69
2021/04/14 08:21:24;;;;;;;3.78;0.45;;;24.30;61.00;;;;;;4991906;28;20030;-69
2021/04/14 08:23:58;;;;;;;3.60;0.50;;;24.40;60.20;;;;;;4989541;28;20121;-69
2021/04/14 08:26:25;;;;;;;;;;;24.30;60.60;;;;;;4989173;28;20041;-70
2021/04/14 08:28:55;;;;;;;3.55;0.32;;;24.20;60.90;;;;;;4991119;28;19936;-70
2021/04/14 08:31:35;;;;;;;5.25;0.57;;;24.10;61.60;;;;;;4988012;28;20545;-70
2021/04/14 08:34:29;;;;;;;5.00;1.00;;;24.00;62.00;;;;;;4989338;28;20022;-70
2021/04/14 08:37:03;;;;;;;4.33;0.60;;;24.10;59.70;;;;;;4989376;28;20160;-70
2021/04/14 08:39:36;;;;;;;;;;;24.00;59.30;;;;;;5000049;28;20347;-70
2021/04/14 08:42:14;;;;;;;2.65;0.77;;;24.10;59.70;;;;;;4990307;28;19968;-70
2021/04/14 08:44:45;;;;;;;3.67;1.13;;;24.10;59.50;;;;;;4988666;28;20053;-70
2021/04/14 08:47:25;;;;;;;4.28;1.50;;;23.90;61.00;;;;;;4989942;28;20367;-70
2021/04/14 08:49:59;;;;;;;7.15;1.77;;;23.80;62.00;;;;;;4987204;28;20042;-70
2021/04/14 08:52:27;;;;;;;5.78;1.10;;;23.70;61.60;;;;;;4987272;28;20471;-70
2021/04/14 08:54:57;;;;;;;3.83;0.88;;;23.60;61.30;;;;;;4985274;28;20566;-70
2021/04/14 08:57:25;;;;;;;7.45;1.33;;;23.60;61.70;;;;;;4999842;28;20039;-70
2021/04/14 08:59:55;;;;;;;8.63;2.28;;;23.50;61.90;;;;;;4984383;28;20447;-70
2021/04/14 09:02:23;;;;;;;4.78;1.30;;;23.40;62.70;;;;;;4986363;28;20113;-70
2021/04/14 09:04:52;;;;;;;7.88;1.13;;;23.40;63.30;;;;;;4988701;28;20361;-70
2021/04/14 09:07:39;;;;;;;5.18;1.92;;;23.60;60.60;;;;;;4984437;28;20035;-70
2021/04/14 09:10:09;;;;;;;7.43;1.23;;;23.60;60.50;;;;;;4989770;28;20050;-70
2021/04/14 09:12:51;;;;;;;1.92;0.85;;;23.60;59.50;;;;;;4981393;28;20034;-70
2021/04/14 09:15:19;;;;;;;3.15;0.60;;;23.80;59.00;;;;;;4984350;28;20031;-70
2021/04/14 09:18:01;;;;;;;8.65;1.00;;;23.80;59.10;;;;;;4982696;28;20023;-70
2021/04/14 09:20:35;;;;;;;5.07;0.77;;;23.80;59.60;;;;;;4982765;28;20048;-70
2021/04/14 09:23:06;;;;;;;3.90;1.00;;;23.80;58.70;;;;;;4983392;28;20129;-70
2021/04/14 09:25:47;;;;;;;2.85;0.98;;;23.80;60.00;;;;;;4986074;28;20037;-70
2021/04/14 09:28:43;;;;;;;5.35;1.05;;;23.70;60.00;;;;;;4982933;28;20026;-68
2021/04/14 09:31:26;;;;;;;5.35;0.90;;;23.70;59.50;;;;;;4983589;28;20115;-69
2021/04/14 09:33:55;;;;;;;2.85;0.80;;;23.80;59.40;;;;;;4986532;28;20434;-69
2021/04/14 09:36:32;;;;;;;4.20;1.02;;;24.00;58.30;;;;;;4985528;28;20439;-67
2021/04/14 09:39:36;;;;;;;3.20;0.65;;;24.10;58.00;;;;;;4985288;28;20038;-69
2021/04/14 09:42:28;;;;;;;3.80;0.70;;;24.10;58.10;;;;;;4978943;28;20194;-69
2021/04/14 09:45:11;;;;;;;2.80;0.95;;;24.10;57.90;;;;;;4982315;28;20148;-67
2021/04/14 09:47:40;;;;;;;2.47;1.03;;;23.90;58.00;;;;;;4989110;28;20522;-68
2021/04/14 09:50:29;;;;;;;4.28;0.77;;;23.90;58.20;;;;;;4993940;28;20038;-68
2021/04/14 09:53:04;;;;;;;2.05;0.90;;;23.70;58.90;;;;;;4990976;28;20049;-67
2021/04/14 09:55:37;;;;;;;3.45;1.02;;;23.60;59.10;;;;;;4986864;28;20069;-68
2021/04/14 09:58:33;;;;;;;4.75;1.15;;;23.50;60.00;;;;;;4989818;28;20612;-67
2021/04/14 10:01:20;;;;;;;4.57;1.02;;;23.50;59.90;;;;;;4987982;28;20034;-69
2021/04/14 10:03:49;;;;;;;5.15;2.08;;;23.40;60.40;;;;;;4982768;28;20031;-67
2021/04/14 10:06:26;;;;;;;3.15;1.75;;;23.40;59.70;;;;;;5003665;28;20035;-69
2021/04/14 10:09:09;;;;;;;3.90;1.70;;;23.30;59.70;;;;;;4986036;28;20132;-69
2021/04/14 10:11:40;;;;;;;5.22;1.75;;;23.30;59.90;;;;;;4986623;28;20031;-68
2021/04/14 10:14:14;;;;;;;6.40;1.40;;;23.20;59.90;;;;;;4986980;28;20515;-69
2021/04/14 10:16:40;;;;;;;;;;;23.20;60.30;;;;;;4987397;28;20026;-70
2021/04/14 10:19:12;;;;;;;7.18;3.08;;;23.00;60.60;;;;;;4988330;28;20370;-69
2021/04/14 10:21:41;;;;;;;4.78;2.35;;;23.10;60.60;;;;;;4980367;28;20019;-68
2021/04/14 10:24:13;;;;;;;6.63;2.40;;;23.00;60.40;;;;;;4988898;28;20041;-68
2021/04/14 10:26:51;;;;;;;4.93;1.88;;;23.00;60.20;;;;;;4980322;28;20023;-68
2021/04/14 10:29:21;;;;;;;3.22;1.00;;;22.90;61.20;;;;;;4989494;28;20038;-67
2021/04/14 10:31:48;;;;;;;8.15;1.10;;;22.90;60.90;;;;;;4988058;28;20107;-66
2021/04/14 10:34:36;;;;;;;7.22;2.08;;;22.90;61.70;;;;;;4992613;28;20022;-68
2021/04/14 10:37:23;;;;;;;3.97;0.95;;;22.70;62.60;;;;;;4980215;28;20106;-67
2021/04/14 10:39:52;;;;;;;6.55;1.42;;;22.60;63.10;;;;;;4980607;28;20034;-67
2021/04/14 10:42:30;;;;;;;4.20;1.20;;;22.70;61.80;;;;;;4988913;28;20105;-67
2021/04/14 10:45:07;;;;;;;4.43;1.27;;;22.60;62.80;;;;;;4990191;28;20439;-67
2021/04/14 10:47:38;;;;;;;6.47;1.20;;;22.50;62.10;;;;;;4982380;28;20049;-67
2021/04/14 10:50:25;;;;;;;6.60;1.58;;;22.40;63.10;;;;;;4989225;28;20057;-67
2021/04/14 10:53:06;;;;;;;7.50;1.70;;;22.20;68.80;;;;;;4995682;28;20034;-67
2021/04/14 10:55:48;;;;;;;6.47;1.40;;;21.90;67.90;;;;;;4985695;28;20033;-68
2021/04/14 10:58:23;;;;;;;5.05;1.70;;;21.80;71.40;;;;;;4997757;28;20050;-68
2021/04/14 11:00:51;;;;;;;6.13;1.45;;;21.70;67.50;;;;;;4990516;28;20145;-68
2021/04/14 11:03:24;;;;;;;5.72;1.30;;;21.60;65.30;;;;;;4989062;28;20064;-68
2021/04/14 11:05:58;;;;;;;6.13;2.03;;;21.60;67.20;;;;;;4989069;28;20049;-68
2021/04/14 11:08:27;;;;;;;6.57;1.73;;;21.40;72.50;;;;;;4983320;28;20118;-68
2021/04/14 11:10:58;;;;;;;5.00;1.60;;;21.20;70.80;;;;;;4990963;28;20026;-68
2021/04/14 11:13:29;;;;;;;5.75;2.00;;;21.10;70.20;;;;;;4995689;28;20046;-68
2021/04/14 11:15:57;;;;;;;6.85;1.42;;;21.00;70.30;;;;;;4995313;28;20018;-68
2021/04/14 11:18:36;;;;;;;5.60;1.55;;;21.00;70.40;;;;;;4997439;28;20084;-68
2021/04/14 11:21:09;;;;;;;6.45;1.95;;;20.80;70.50;;;;;;4991752;28;20053;-67
2021/04/14 11:23:38;;;;;;;7.47;1.95;;;20.70;73.80;;;;;;4985973;28;20597;-67
2021/04/14 11:26:20;;;;;;;5.32;1.60;;;20.60;74.90;;;;;;4994883;28;20968;-67
2021/04/14 11:28:54;;;;;;;5.53;1.65;;;20.60;75.60;;;;;;4999283;28;20075;-66
2021/04/14 11:31:27;;;;;;;3.65;1.42;;;20.60;71.20;;;;;;5002139;28;20037;-68
2021/04/14 11:33:55;;;;;;;5.45;1.95;;;20.60;72.20;;;;;;4997026;28;20120;-67
2021/04/14 11:36:25;;;;;;;3.38;1.23;;;20.50;74.50;;;;;;4987983;28;20030;-67
2021/04/14 11:39:17;;;;;;;9.27;2.75;;;20.50;74.60;;;;;;4993286;28;20042;-68
2021/04/14 11:41:47;;;;;;;6.30;2.05;;;20.50;74.40;;;;;;4992882;28;20482;-67
2021/04/14 11:44:20;;;;;;;4.57;1.35;;;20.50;73.00;;;;;;4991909;28;20493;-68
2021/04/14 11:46:59;;;;;;;4.47;1.48;;;20.60;70.20;;;;;;4997464;28;20490;-68
2021/04/14 11:49:33;;;;;;;3.50;1.25;;;20.80;71.10;;;;;;4994848;28;20038;-68
2021/04/14 11:52:20;;;;;;;4.10;1.10;;;21.00;68.10;;;;;;4997297;28;20026;-67
2021/04/14 11:54:48;;;;;;;6.10;1.33;;;21.20;67.00;;;;;;4988904;28;20023;-67
2021/04/14 11:57:30;;;;;;;3.90;1.30;;;21.60;65.50;;;;;;5000044;28;20076;-68
2021/04/14 12:00:26;;;;;;;4.07;1.23;;;21.70;64.50;;;;;;4993175;28;20034;-68
2021/04/14 12:03:16;;;;;;;3.03;1.20;;;21.80;64.10;;;;;;4995591;28;20113;-68
2021/04/14 12:05:43;;;;;;;2.05;0.70;;;22.00;64.30;;;;;;4998481;28;20041;-68
2021/04/14 12:08:10;;;;;;;3.13;1.45;;;22.10;64.30;;;;;;4981274;28;20038;-68
2021/04/14 12:10:38;;;;;;;3.40;0.85;;;22.10;64.00;;;;;;5001877;28;20030;-68
2021/04/14 12:13:05;;;;;;;3.53;1.08;;;22.10;63.60;;;;;;4992245;28;20030;-68
2021/04/14 12:15:33;;;;;;;4.47;0.63;;;22.10;63.50;;;;;;4993670;28;20022;-68
2021/04/14 12:18:00;;;;;;;2.80;0.52;;;22.10;63.10;;;;;;4994972;28;20022;-68
2021/04/14 12:20:28;;;;;;;4.35;0.80;;;22.20;63.00;;;;;;4991964;28;20105;-68
2021/04/14 12:22:55;;;;;;;2.63;0.80;;;22.20;63.00;;;;;;4995007;28;20379;-68
2021/04/14 12:25:22;;;;;;;4.78;0.98;;;22.20;62.50;;;;;;4989203;28;20120;-68
2021/04/14 12:27:50;;;;;;;5.53;0.77;;;22.40;62.30;;;;;;4991769;28;20341;-68
2021/04/14 12:30:20;;;;;;;3.53;0.85;;;22.40;61.90;;;;;;4996247;28;20056;-67
2021/04/14 12:32:48;;;;;;;5.35;0.75;;;22.40;61.80;;;;;;4994097;28;20049;-67
2021/04/14 12:35:15;;;;;;;1.83;0.60;;;22.40;62.40;;;;;;4996249;28;20026;-67
2021/04/14 12:37:43;;;;;;;3.50;0.95;;;22.30;62.30;;;;;;4993275;28;20194;-66
2021/04/14 12:40:11;;;;;;;4.40;0.90;;;22.30;62.90;;;;;;5004788;28;20442;-67
2021/04/14 12:42:38;;;;;;;3.75;1.02;;;22.10;63.10;;;;;;4999045;28;20034;-67
2021/04/14 12:45:29;;;;;;;4.78;0.88;;;22.10;63.40;;;;;;4992169;28;20025;-67
2021/04/14 12:47:56;;;;;;;5.55;0.80;;;22.00;63.90;;;;;;4990425;28;20460;-67
2021/04/14 12:50:23;;;;;;;2.42;0.65;;;21.80;64.30;;;;;;4989687;28;20082;-67
2021/04/14 12:52:54;;;;;;;2.53;0.80;;;21.70;64.80;;;;;;5008616;28;20109;-67
2021/04/14 12:55:37;;;;;;;5.13;0.80;;;21.60;65.00;;;;;;4984768;28;20030;-67
2021/04/14 12:58:08;;;;;;;3.28;0.88;;;21.60;65.40;;;;;;4989578;28;20026;-67
2021/04/14 13:00:35;;;;;;;4.88;1.20;;;21.50;65.50;;;;;;4995454;28;20034;-67
2021/04/14 13:03:31;;;;;;;4.32;0.75;;;21.50;65.70;;;;;;4996418;28;20707;-67
2021/04/14 13:06:07;;;;;;;3.70;0.70;;;21.50;66.00;;;;;;4953288;28;20572;-67
2021/04/14 13:08:41;;;;;;;2.33;0.60;;;21.50;65.30;;;;;;4991160;28;20032;-67
2021/04/14 13:11:15;;;;;;;4.85;0.70;;;21.50;65.10;;;;;;4992147;28;20022;-67
2021/04/14 13:13:42;;;;;;;2.10;0.70;;;21.50;64.80;;;;;;4992631;28;20503;-66
2021/04/14 13:16:27;;;;;;;3.25;0.73;;;21.50;64.90;;;;;;4990979;28;20376;-67
2021/04/14 13:18:53;;;;;;;;;;;21.50;65.10;;;;;;4991927;28;20027;-66